Avilla, MO

3:18 PM CDT on October 31, 2014 (GMT -0500)
the Wood | Change Station
CLOSE
Current Station
Personal Weather Station
Location: Reeds, MO
Elevation: 1086 ft
Nearby Weather Stations
Active Advisory: Freeze Warning Active Notice: Public Information Statement

Elev 1086 ft 37.17 °N, 94.17 °W | Updated 3 minutes ago

Clear
Clear
50.1 °F
Feels Like 50.1 °F
N
5.0
Wind Variable Wind from NNE
Gusts 8.0 mph

Today
High -- | Low -- °F
--% Chance of Precip.
Yesterday
High -- | Low -- °F
Precip. -- in
7:39 AM 6:19 PM
First Quarter, 58% visible
Pressure 30.40 in
Visibility 10.0 miles
Clouds Clear
Dew Point 24 °F
Humidity 36%
Rainfall 0.00 in
Snow Depth Not available.
UV 4 out of 12
Pollen .80 out of 12
Air Quality Not available.
Flu Activity Not available.
METAR KJLN 311953Z 35016G21KT 10SM CLR 08/M03 A3040 RMK AO2 SLP295 T00831033

More Conditions Fewer Conditions

Pressure 30.40 in
Visibility 10.0 miles
Clouds Clear
Dew Point 24 °F
Humidity 36%
Rainfall 0.00 in
Snow Depth Not available.
UV 4 out of 12
Pollen .80 out of 12
Air Quality Not available.
Flu Activity Not available.
METAR KJLN 311953Z 35016G21KT 10SM CLR 08/M03 A3040 RMK AO2 SLP295 T00831033

More Conditions Fewer Conditions

10-Day Weather Forecast

Almanac

Astronomy

Oct. 31, 2014 Rise Set
Actual Time
Civil Twilight
Nautical Twilight
Astronomical Twilight
Moon
Length of Visible Light
Length of Day
Tomorrow will be .
, % of the Moon is Illuminated

Today's Extremes

State Highs State Lows

Community

WunderPhotos

Upload Photos

1,766,717 photos uploaded!

WunderBlogs® & News

Nearby

Air Quality

  Air Quality AQ Index Pollutant
Not available.

Snow Depth

Station Depth Elevation

Earthquake Activity

City Distance Mag. Time & Date
Minimum magnitude displayed is 2.5.

Coastal Water Temperatures

Place Temperature

Nearby Weather Stations